To NAV CANADA Home Page Login to a new session Search on AWWS site Disclaimer Vers la page française équivalente Tips FAQ What's new on the site To the Forecasts and Observations / NOTAM section To "File a Flight Plan" website Publications and other links Update of the User's profile FIC Telephone Numbers My Weather Data Folder Route Weather Data Regional Weather Data Local Weather Data To the Forecasts and Observations / NOTAM section
Request Generated 04/08/2020 at 09:36:43 UTC . Weather information available at that time is displayed.

METAR/TAF

SEPT-ILES/QC    

METAR CYZV 080900Z 33004KT 15SM FEW120 FEW260 M09/M17 A2971 RMK AC1CI1 AC TR CI TR SLP065=
METAR CYZV 080800Z 34006KT 15SM FEW080 M08/M17 A2971 RMK AC1 AC TR SLP066=
METAR CYZV 080700Z 01009KT 15SM SCT080 M07/M15 A2971 RMK AC3 SLP067=

TAF CYZV 080538Z 0806/0906 01008KT P6SM FEW080 SCT160
BECMG 0810/0812 33006KT
FM081600 32010KT P6SM BKN050
FM082200 32005KT P6SM FEW050
RMK NXT FCST BY 081200Z=
Your time UTC time
Weather data provided by Environment Canada and NAV CANADA